sensor_id;sensor_type;location;lat;lon;timestamp;temperature;humidity
45283;DHT22;31023;44.994;1.796;2023-10-13T00:01:59;17.50;84.10
45283;DHT22;31023;44.994;1.796;2023-10-13T00:04:25;17.30;84.80
45283;DHT22;31023;44.994;1.796;2023-10-13T00:06:54;17.10;86.20
45283;DHT22;31023;44.994;1.796;2023-10-13T00:09:25;17.00;87.30
45283;DHT22;31023;44.994;1.796;2023-10-13T00:11:54;17.00;87.70
45283;DHT22;31023;44.994;1.796;2023-10-13T00:14:21;17.00;87.70
45283;DHT22;31023;44.994;1.796;2023-10-13T00:16:47;16.90;88.00
45283;DHT22;31023;44.994;1.796;2023-10-13T00:19:32;17.00;86.80
45283;DHT22;31023;44.994;1.796;2023-10-13T00:22:09;17.00;86.70
45283;DHT22;31023;44.994;1.796;2023-10-13T00:24:36;16.90;87.40
45283;DHT22;31023;44.994;1.796;2023-10-13T00:27:19;16.80;88.20
45283;DHT22;31023;44.994;1.796;2023-10-13T00:30:07;16.70;88.90
45283;DHT22;31023;44.994;1.796;2023-10-13T00:32:50;16.60;89.70
45283;DHT22;31023;44.994;1.796;2023-10-13T00:35:20;16.60;90.00
45283;DHT22;31023;44.994;1.796;2023-10-13T00:37:52;16.60;90.10
45283;DHT22;31023;44.994;1.796;2023-10-13T00:40:21;16.50;90.30
45283;DHT22;31023;44.994;1.796;2023-10-13T00:42:56;16.50;90.50
45283;DHT22;31023;44.994;1.796;2023-10-13T00:45:32;16.50;90.60
45283;DHT22;31023;44.994;1.796;2023-10-13T00:47:59;16.50;90.40
45283;DHT22;31023;44.994;1.796;2023-10-13T00:50:26;16.60;90.20
45283;DHT22;31023;44.994;1.796;2023-10-13T00:52:55;16.70;90.10
45283;DHT22;31023;44.994;1.796;2023-10-13T00:55:21;16.70;90.20
45283;DHT22;31023;44.994;1.796;2023-10-13T00:57:52;16.60;90.40
45283;DHT22;31023;44.994;1.796;2023-10-13T01:00:19;16.50;90.60
45283;DHT22;31023;44.994;1.796;2023-10-13T01:02:49;16.30;90.90
45283;DHT22;31023;44.994;1.796;2023-10-13T01:05:21;16.20;91.30
45283;DHT22;31023;44.994;1.796;2023-10-13T01:07:47;16.10;91.60
45283;DHT22;31023;44.994;1.796;2023-10-13T01:10:23;16.10;92.10
45283;DHT22;31023;44.994;1.796;2023-10-13T01:12:53;16.10;92.00
45283;DHT22;31023;44.994;1.796;2023-10-13T01:15:19;16.20;92.00
45283;DHT22;31023;44.994;1.796;2023-10-13T01:17:48;16.20;91.90
45283;DHT22;31023;44.994;1.796;2023-10-13T01:20:16;16.20;91.80
45283;DHT22;31023;44.994;1.796;2023-10-13T01:22:51;16.20;91.80
45283;DHT22;31023;44.994;1.796;2023-10-13T01:25:24;16.20;91.80
45283;DHT22;31023;44.994;1.796;2023-10-13T01:27:53;16.20;91.80
45283;DHT22;31023;44.994;1.796;2023-10-13T01:30:19;16.10;91.90
45283;DHT22;31023;44.994;1.796;2023-10-13T01:32:52;16.10;91.80
45283;DHT22;31023;44.994;1.796;2023-10-13T01:35:19;16.10;91.90
45283;DHT22;31023;44.994;1.796;2023-10-13T01:37:49;16.10;92.00
45283;DHT22;31023;44.994;1.796;2023-10-13T01:40:15;16.00;92.00
45283;DHT22;31023;44.994;1.796;2023-10-13T01:42:47;16.00;92.00
45283;DHT22;31023;44.994;1.796;2023-10-13T01:45:23;15.90;92.00
45283;DHT22;31023;44.994;1.796;2023-10-13T01:47:54;16.00;92.10
45283;DHT22;31023;44.994;1.796;2023-10-13T01:50:20;15.90;92.00
45283;DHT22;31023;44.994;1.796;2023-10-13T01:52:46;15.90;92.00
45283;DHT22;31023;44.994;1.796;2023-10-13T01:55:12;15.90;92.10
45283;DHT22;31023;44.994;1.796;2023-10-13T01:57:39;15.80;92.20
45283;DHT22;31023;44.994;1.796;2023-10-13T02:00:07;15.80;92.20
45283;DHT22;31023;44.994;1.796;2023-10-13T02:02:44;15.80;92.30
45283;DHT22;31023;44.994;1.796;2023-10-13T02:05:10;15.80;92.30
45283;DHT22;31023;44.994;1.796;2023-10-13T02:07:36;15.60;92.60
45283;DHT22;31023;44.994;1.796;2023-10-13T02:10:04;15.60;92.80
45283;DHT22;31023;44.994;1.796;2023-10-13T02:12:31;15.60;92.80
45283;DHT22;31023;44.994;1.796;2023-10-13T02:15:09;15.60;92.80
45283;DHT22;31023;44.994;1.796;2023-10-13T02:17:37;15.50;92.80
45283;DHT22;31023;44.994;1.796;2023-10-13T02:20:07;15.60;92.70
45283;DHT22;31023;44.994;1.796;2023-10-13T02:22:42;15.60;92.60
45283;DHT22;31023;44.994;1.796;2023-10-13T02:25:25;15.60;92.60
45283;DHT22;31023;44.994;1.796;2023-10-13T02:28:11;15.50;92.90
45283;DHT22;31023;44.994;1.796;2023-10-13T02:30:43;15.40;92.90
45283;DHT22;31023;44.994;1.796;2023-10-13T02:33:16;15.40;93.00
45283;DHT22;31023;44.994;1.796;2023-10-13T02:35:47;15.40;92.90
45283;DHT22;31023;44.994;1.796;2023-10-13T02:38:19;15.40;93.00
45283;DHT22;31023;44.994;1.796;2023-10-13T02:40:58;15.30;92.90
45283;DHT22;31023;44.994;1.796;2023-10-13T02:43:32;15.30;93.20
45283;DHT22;31023;44.994;1.796;2023-10-13T02:45:58;15.30;93.20
45283;DHT22;31023;44.994;1.796;2023-10-13T02:48:25;15.30;93.20
45283;DHT22;31023;44.994;1.796;2023-10-13T02:50:56;15.20;93.20
45283;DHT22;31023;44.994;1.796;2023-10-13T02:53:22;15.20;93.20
45283;DHT22;31023;44.994;1.796;2023-10-13T02:55:50;15.20;93.40
45283;DHT22;31023;44.994;1.796;2023-10-13T02:58:16;15.20;93.30
45283;DHT22;31023;44.994;1.796;2023-10-13T03:00:42;15.20;93.40
45283;DHT22;31023;44.994;1.796;2023-10-13T03:03:09;15.20;93.50
45283;DHT22;31023;44.994;1.796;2023-10-13T03:05:35;15.10;93.60
45283;DHT22;31023;44.994;1.796;2023-10-13T03:08:01;15.20;93.40
45283;DHT22;31023;44.994;1.796;2023-10-13T03:10:29;15.10;93.50
45283;DHT22;31023;44.994;1.796;2023-10-13T03:12:55;14.80;94.00
45283;DHT22;31023;44.994;1.796;2023-10-13T03:15:21;14.90;94.10
45283;DHT22;31023;44.994;1.796;2023-10-13T03:17:54;14.90;94.00
45283;DHT22;31023;44.994;1.796;2023-10-13T03:20:20;14.90;94.00
45283;DHT22;31023;44.994;1.796;2023-10-13T03:22:55;15.00;94.00
45283;DHT22;31023;44.994;1.796;2023-10-13T03:25:21;14.90;94.00
45283;DHT22;31023;44.994;1.796;2023-10-13T03:27:54;15.00;94.00
45283;DHT22;31023;44.994;1.796;2023-10-13T03:30:20;15.00;93.80
45283;DHT22;31023;44.994;1.796;2023-10-13T03:32:47;14.80;94.10
45283;DHT22;31023;44.994;1.796;2023-10-13T03:35:19;14.80;94.20
45283;DHT22;31023;44.994;1.796;2023-10-13T03:37:56;14.80;94.10
45283;DHT22;31023;44.994;1.796;2023-10-13T03:40:23;14.70;94.50
45283;DHT22;31023;44.994;1.796;2023-10-13T03:43:06;14.60;94.70
45283;DHT22;31023;44.994;1.796;2023-10-13T03:45:36;14.70;94.50
45283;DHT22;31023;44.994;1.796;2023-10-13T03:48:04;14.70;94.30
45283;DHT22;31023;44.994;1.796;2023-10-13T03:50:37;14.80;94.20
45283;DHT22;31023;44.994;1.796;2023-10-13T03:53:12;14.70;94.20
45283;DHT22;31023;44.994;1.796;2023-10-13T03:55:38;14.70;94.20
45283;DHT22;31023;44.994;1.796;2023-10-13T03:58:04;14.70;94.10
45283;DHT22;31023;44.994;1.796;2023-10-13T04:00:30;14.70;94.00
45283;DHT22;31023;44.994;1.796;2023-10-13T04:02:56;14.70;94.10
45283;DHT22;31023;44.994;1.796;2023-10-13T04:05:28;14.70;94.20
45283;DHT22;31023;44.994;1.796;2023-10-13T04:08:16;14.60;94.30
45283;DHT22;31023;44.994;1.796;2023-10-13T04:10:55;14.70;94.20
45283;DHT22;31023;44.994;1.796;2023-10-13T04:13:21;14.70;94.20
45283;DHT22;31023;44.994;1.796;2023-10-13T04:16:06;14.60;94.30
45283;DHT22;31023;44.994;1.796;2023-10-13T04:18:47;14.70;94.10
45283;DHT22;31023;44.994;1.796;2023-10-13T04:21:25;14.60;94.20
45283;DHT22;31023;44.994;1.796;2023-10-13T04:24:21;14.60;94.30
45283;DHT22;31023;44.994;1.796;2023-10-13T04:26:50;14.40;94.50
45283;DHT22;31023;44.994;1.796;2023-10-13T04:29:45;14.30;94.80
45283;DHT22;31023;44.994;1.796;2023-10-13T04:32:14;14.30;95.10
45283;DHT22;31023;44.994;1.796;2023-10-13T04:34:43;14.30;95.00
45283;DHT22;31023;44.994;1.796;2023-10-13T04:37:12;14.30;95.00
45283;DHT22;31023;44.994;1.796;2023-10-13T04:39:58;14.30;95.10
45283;DHT22;31023;44.994;1.796;2023-10-13T04:42:35;14.20;95.20
45283;DHT22;31023;44.994;1.796;2023-10-13T04:45:21;14.20;95.50
45283;DHT22;31023;44.994;1.796;2023-10-13T04:47:55;14.00;95.80
45283;DHT22;31023;44.994;1.796;2023-10-13T04:50:43;13.90;96.10
45283;DHT22;31023;44.994;1.796;2023-10-13T04:55:59;14.00;95.80
45283;DHT22;31023;44.994;1.796;2023-10-13T04:58:45;14.20;95.60
45283;DHT22;31023;44.994;1.796;2023-10-13T05:01:46;14.30;95.30
45283;DHT22;31023;44.994;1.796;2023-10-13T05:04:30;14.30;95.00
45283;DHT22;31023;44.994;1.796;2023-10-13T05:07:04;14.40;94.80
45283;DHT22;31023;44.994;1.796;2023-10-13T05:09:48;14.30;94.80
45283;DHT22;31023;44.994;1.796;2023-10-13T05:12:33;14.30;94.80
45283;DHT22;31023;44.994;1.796;2023-10-13T05:15:17;14.40;94.70
45283;DHT22;31023;44.994;1.796;2023-10-13T05:18:01;14.30;94.70
45283;DHT22;31023;44.994;1.796;2023-10-13T05:20:46;14.30;94.60
45283;DHT22;31023;44.994;1.796;2023-10-13T05:23:30;14.30;94.50
45283;DHT22;31023;44.994;1.796;2023-10-13T05:26:14;14.30;94.50
45283;DHT22;31023;44.994;1.796;2023-10-13T05:28:58;14.30;94.60
45283;DHT22;31023;44.994;1.796;2023-10-13T05:31:42;14.30;94.50
45283;DHT22;31023;44.994;1.796;2023-10-13T05:34:27;14.30;94.50
45283;DHT22;31023;44.994;1.796;2023-10-13T05:37:11;14.30;94.50
45283;DHT22;31023;44.994;1.796;2023-10-13T05:39:55;14.20;94.60
45283;DHT22;31023;44.994;1.796;2023-10-13T05:42:39;14.20;94.70
45283;DHT22;31023;44.994;1.796;2023-10-13T05:45:24;14.20;94.70
45283;DHT22;31023;44.994;1.796;2023-10-13T05:48:02;14.20;94.70
45283;DHT22;31023;44.994;1.796;2023-10-13T05:50:36;14.20;94.60
45283;DHT22;31023;44.994;1.796;2023-10-13T05:53:20;14.20;94.50
45283;DHT22;31023;44.994;1.796;2023-10-13T05:56:05;14.30;94.40
45283;DHT22;31023;44.994;1.796;2023-10-13T05:59:10;14.30;94.30
45283;DHT22;31023;44.994;1.796;2023-10-13T06:01:58;14.30;94.30
45283;DHT22;31023;44.994;1.796;2023-10-13T06:04:42;14.30;94.20
45283;DHT22;31023;44.994;1.796;2023-10-13T06:07:26;14.30;94.20
45283;DHT22;31023;44.994;1.796;2023-10-13T06:10:11;14.30;94.10
45283;DHT22;31023;44.994;1.796;2023-10-13T06:12:55;14.30;94.10
45283;DHT22;31023;44.994;1.796;2023-10-13T06:15:44;14.40;94.00
45283;DHT22;31023;44.994;1.796;2023-10-13T06:18:28;14.40;93.90
45283;DHT22;31023;44.994;1.796;2023-10-13T06:21:12;14.60;93.60
45283;DHT22;31023;44.994;1.796;2023-10-13T06:23:56;14.90;92.80
45283;DHT22;31023;44.994;1.796;2023-10-13T06:26:41;15.20;92.20
45283;DHT22;31023;44.994;1.796;2023-10-13T06:29:25;15.40;91.70
45283;DHT22;31023;44.994;1.796;2023-10-13T06:31:50;15.50;91.50
45283;DHT22;31023;44.994;1.796;2023-10-13T06:34:16;15.50;91.30
45283;DHT22;31023;44.994;1.796;2023-10-13T06:36:45;15.70;91.10
45283;DHT22;31023;44.994;1.796;2023-10-13T06:39:12;15.70;91.10
45283;DHT22;31023;44.994;1.796;2023-10-13T06:41:56;15.80;90.90
45283;DHT22;31023;44.994;1.796;2023-10-13T06:44:22;16.00;90.80
45283;DHT22;31023;44.994;1.796;2023-10-13T06:46:49;16.10;90.40
45283;DHT22;31023;44.994;1.796;2023-10-13T06:49:15;16.20;90.10
45283;DHT22;31023;44.994;1.796;2023-10-13T06:51:43;16.30;90.00
45283;DHT22;31023;44.994;1.796;2023-10-13T06:54:11;16.30;89.20
45283;DHT22;31023;44.994;1.796;2023-10-13T06:56:45;16.50;88.80
45283;DHT22;31023;44.994;1.796;2023-10-13T06:59:11;16.70;87.90
45283;DHT22;31023;44.994;1.796;2023-10-13T07:01:42;17.20;86.50
45283;DHT22;31023;44.994;1.796;2023-10-13T07:04:10;17.40;85.40
45283;DHT22;31023;44.994;1.796;2023-10-13T07:06:42;17.90;83.70
45283;DHT22;31023;44.994;1.796;2023-10-13T07:09:13;18.00;82.50
45283;DHT22;31023;44.994;1.796;2023-10-13T07:11:59;18.30;81.00
45283;DHT22;31023;44.994;1.796;2023-10-13T07:14:26;18.50;80.20
45283;DHT22;31023;44.994;1.796;2023-10-13T07:16:56;18.90;79.10
45283;DHT22;31023;44.994;1.796;2023-10-13T07:19:24;19.30;77.70
45283;DHT22;31023;44.994;1.796;2023-10-13T07:21:57;20.40;76.00
45283;DHT22;31023;44.994;1.796;2023-10-13T07:24:28;20.50;75.10
45283;DHT22;31023;44.994;1.796;2023-10-13T07:26:59;20.60;75.20
45283;DHT22;31023;44.994;1.796;2023-10-13T07:29:30;20.80;74.50
45283;DHT22;31023;44.994;1.796;2023-10-13T07:31:56;20.80;73.70
45283;DHT22;31023;44.994;1.796;2023-10-13T07:34:21;21.10;73.30
45283;DHT22;31023;44.994;1.796;2023-10-13T07:36:52;21.30;71.60
45283;DHT22;31023;44.994;1.796;2023-10-13T07:39:18;21.70;70.50
45283;DHT22;31023;44.994;1.796;2023-10-13T07:41:50;22.30;69.90
45283;DHT22;31023;44.994;1.796;2023-10-13T07:44:32;22.10;71.30
45283;DHT22;31023;44.994;1.796;2023-10-13T07:46:59;22.00;71.30
45283;DHT22;31023;44.994;1.796;2023-10-13T07:49:35;22.40;70.40
45283;DHT22;31023;44.994;1.796;2023-10-13T07:52:08;22.60;70.10
45283;DHT22;31023;44.994;1.796;2023-10-13T07:54:46;22.30;69.80
45283;DHT22;31023;44.994;1.796;2023-10-13T07:57:17;22.50;71.20
45283;DHT22;31023;44.994;1.796;2023-10-13T07:59:42;22.40;70.30
45283;DHT22;31023;44.994;1.796;2023-10-13T08:02:16;22.40;69.50
45283;DHT22;31023;44.994;1.796;2023-10-13T08:05:01;22.40;70.00
45283;DHT22;31023;44.994;1.796;2023-10-13T08:07:30;22.50;69.40
45283;DHT22;31023;44.994;1.796;2023-10-13T08:09:56;22.20;69.80
45283;DHT22;31023;44.994;1.796;2023-10-13T08:12:24;22.20;69.10
45283;DHT22;31023;44.994;1.796;2023-10-13T08:14:50;22.30;68.90
45283;DHT22;31023;44.994;1.796;2023-10-13T08:17:34;22.60;68.10
45283;DHT22;31023;44.994;1.796;2023-10-13T08:20:00;22.80;67.80
45283;DHT22;31023;44.994;1.796;2023-10-13T08:22:36;23.20;67.70
45283;DHT22;31023;44.994;1.796;2023-10-13T08:25:03;23.20;67.90
45283;DHT22;31023;44.994;1.796;2023-10-13T08:27:46;24.10;67.40
45283;DHT22;31023;44.994;1.796;2023-10-13T08:30:31;24.00;66.70
45283;DHT22;31023;44.994;1.796;2023-10-13T08:32:59;24.20;67.00
45283;DHT22;31023;44.994;1.796;2023-10-13T08:35:29;24.50;65.90
45283;DHT22;31023;44.994;1.796;2023-10-13T08:37:55;24.50;65.70
45283;DHT22;31023;44.994;1.796;2023-10-13T08:40:23;24.80;65.80
45283;DHT22;31023;44.994;1.796;2023-10-13T08:43:10;24.90;65.10
45283;DHT22;31023;44.994;1.796;2023-10-13T08:45:37;24.90;65.80
45283;DHT22;31023;44.994;1.796;2023-10-13T08:48:03;25.30;65.10
45283;DHT22;31023;44.994;1.796;2023-10-13T08:56:01;24.60;66.20
45283;DHT22;31023;44.994;1.796;2023-10-13T08:58:45;24.60;67.10
45283;DHT22;31023;44.994;1.796;2023-10-13T09:01:20;25.30;65.70
45283;DHT22;31023;44.994;1.796;2023-10-13T09:04:02;25.30;65.60
45283;DHT22;31023;44.994;1.796;2023-10-13T09:06:56;25.20;66.00
45283;DHT22;31023;44.994;1.796;2023-10-13T09:09:31;25.70;65.70
45283;DHT22;31023;44.994;1.796;2023-10-13T09:12:01;26.00;64.70
45283;DHT22;31023;44.994;1.796;2023-10-13T09:14:36;26.10;65.10
45283;DHT22;31023;44.994;1.796;2023-10-13T09:17:08;25.50;64.80
45283;DHT22;31023;44.994;1.796;2023-10-13T09:19:58;26.00;65.50
45283;DHT22;31023;44.994;1.796;2023-10-13T09:22:25;26.70;63.70
45283;DHT22;31023;44.994;1.796;2023-10-13T09:24:58;27.10;62.10
45283;DHT22;31023;44.994;1.796;2023-10-13T09:27:25;26.60;63.30
45283;DHT22;31023;44.994;1.796;2023-10-13T09:30:02;26.90;61.70
45283;DHT22;31023;44.994;1.796;2023-10-13T09:32:58;26.10;61.70
45283;DHT22;31023;44.994;1.796;2023-10-13T09:35:27;25.20;65.00
45283;DHT22;31023;44.994;1.796;2023-10-13T09:37:54;25.20;64.50
45283;DHT22;31023;44.994;1.796;2023-10-13T09:40:22;25.10;65.60
45283;DHT22;31023;44.994;1.796;2023-10-13T09:42:51;25.30;64.50
45283;DHT22;31023;44.994;1.796;2023-10-13T09:45:17;25.50;64.60
45283;DHT22;31023;44.994;1.796;2023-10-13T09:47:44;25.00;64.80
45283;DHT22;31023;44.994;1.796;2023-10-13T09:50:18;25.10;64.30
45283;DHT22;31023;44.994;1.796;2023-10-13T09:52:49;25.00;65.30
45283;DHT22;31023;44.994;1.796;2023-10-13T09:55:27;25.20;64.90
45283;DHT22;31023;44.994;1.796;2023-10-13T09:58:05;25.30;63.70
45283;DHT22;31023;44.994;1.796;2023-10-13T10:00:41;25.40;64.30
45283;DHT22;31023;44.994;1.796;2023-10-13T10:03:07;25.40;64.20
45283;DHT22;31023;44.994;1.796;2023-10-13T10:05:55;25.20;64.60
45283;DHT22;31023;44.994;1.796;2023-10-13T10:08:29;25.40;64.80
45283;DHT22;31023;44.994;1.796;2023-10-13T10:13:56;25.00;63.70
45283;DHT22;31023;44.994;1.796;2023-10-13T10:19:12;25.50;64.20
45283;DHT22;31023;44.994;1.796;2023-10-13T10:21:37;25.20;63.30
45283;DHT22;31023;44.994;1.796;2023-10-13T10:24:15;25.20;63.20
45283;DHT22;31023;44.994;1.796;2023-10-13T10:26:54;25.30;65.40
45283;DHT22;31023;44.994;1.796;2023-10-13T10:29:19;25.40;64.80
45283;DHT22;31023;44.994;1.796;2023-10-13T10:31:45;25.50;64.20
45283;DHT22;31023;44.994;1.796;2023-10-13T10:34:12;25.50;63.40
45283;DHT22;31023;44.994;1.796;2023-10-13T10:36:38;25.50;64.30
45283;DHT22;31023;44.994;1.796;2023-10-13T10:39:08;25.50;64.60
45283;DHT22;31023;44.994;1.796;2023-10-13T10:41:35;25.20;63.20
45283;DHT22;31023;44.994;1.796;2023-10-13T10:44:09;25.10;64.10
45283;DHT22;31023;44.994;1.796;2023-10-13T10:46:34;25.10;63.30
45283;DHT22;31023;44.994;1.796;2023-10-13T10:49:07;25.00;63.90
45283;DHT22;31023;44.994;1.796;2023-10-13T10:51:36;25.00;63.90
45283;DHT22;31023;44.994;1.796;2023-10-13T10:54:17;25.00;64.10
45283;DHT22;31023;44.994;1.796;2023-10-13T10:56:43;25.20;64.60
45283;DHT22;31023;44.994;1.796;2023-10-13T10:59:09;25.00;64.20
45283;DHT22;31023;44.994;1.796;2023-10-13T11:01:45;25.30;65.30
45283;DHT22;31023;44.994;1.796;2023-10-13T11:04:16;25.30;64.50
45283;DHT22;31023;44.994;1.796;2023-10-13T11:06:52;25.30;64.30
45283;DHT22;31023;44.994;1.796;2023-10-13T11:09:30;25.40;64.40
45283;DHT22;31023;44.994;1.796;2023-10-13T11:11:56;25.30;63.20
45283;DHT22;31023;44.994;1.796;2023-10-13T11:14:23;25.30;64.30
45283;DHT22;31023;44.994;1.796;2023-10-13T11:16:53;25.40;64.10
45283;DHT22;31023;44.994;1.796;2023-10-13T11:19:38;25.30;63.80
45283;DHT22;31023;44.994;1.796;2023-10-13T11:22:10;25.30;64.30
45283;DHT22;31023;44.994;1.796;2023-10-13T11:24:39;25.20;62.40
45283;DHT22;31023;44.994;1.796;2023-10-13T11:27:13;25.30;65.00
45283;DHT22;31023;44.994;1.796;2023-10-13T11:29:41;25.30;64.50
45283;DHT22;31023;44.994;1.796;2023-10-13T11:32:07;25.20;63.40
45283;DHT22;31023;44.994;1.796;2023-10-13T11:34:33;25.10;63.70
45283;DHT22;31023;44.994;1.796;2023-10-13T11:37:06;25.10;63.80
45283;DHT22;31023;44.994;1.796;2023-10-13T11:39:51;25.10;63.90
45283;DHT22;31023;44.994;1.796;2023-10-13T11:42:17;25.10;65.20
45283;DHT22;31023;44.994;1.796;2023-10-13T11:44:43;25.10;64.10
45283;DHT22;31023;44.994;1.796;2023-10-13T11:47:09;25.10;64.20
45283;DHT22;31023;44.994;1.796;2023-10-13T11:50:01;25.20;65.50
45283;DHT22;31023;44.994;1.796;2023-10-13T11:52:26;25.20;66.20
45283;DHT22;31023;44.994;1.796;2023-10-13T11:54:54;25.30;65.10
45283;DHT22;31023;44.994;1.796;2023-10-13T11:57:20;25.30;64.40
45283;DHT22;31023;44.994;1.796;2023-10-13T11:59:46;25.40;65.30
45283;DHT22;31023;44.994;1.796;2023-10-13T12:02:19;25.20;65.10
45283;DHT22;31023;44.994;1.796;2023-10-13T12:04:50;25.30;63.90
45283;DHT22;31023;44.994;1.796;2023-10-13T12:07:28;25.30;64.80
45283;DHT22;31023;44.994;1.796;2023-10-13T12:10:14;25.30;63.80
45283;DHT22;31023;44.994;1.796;2023-10-13T12:12:59;25.20;63.90
45283;DHT22;31023;44.994;1.796;2023-10-13T12:15:31;25.30;64.30
45283;DHT22;31023;44.994;1.796;2023-10-13T12:18:03;25.50;64.70
45283;DHT22;31023;44.994;1.796;2023-10-13T12:20:29;25.50;65.50
45283;DHT22;31023;44.994;1.796;2023-10-13T12:22:58;25.40;64.40
45283;DHT22;31023;44.994;1.796;2023-10-13T12:25:35;25.20;64.40
45283;DHT22;31023;44.994;1.796;2023-10-13T12:28:10;25.30;65.20
45283;DHT22;31023;44.994;1.796;2023-10-13T12:30:46;25.60;64.40
45283;DHT22;31023;44.994;1.796;2023-10-13T12:33:18;25.50;64.70
45283;DHT22;31023;44.994;1.796;2023-10-13T12:35:50;25.50;64.00
45283;DHT22;31023;44.994;1.796;2023-10-13T12:38:30;25.40;63.80
45283;DHT22;31023;44.994;1.796;2023-10-13T12:41:14;25.30;64.20
45283;DHT22;31023;44.994;1.796;2023-10-13T12:43:58;25.60;63.80
45283;DHT22;31023;44.994;1.796;2023-10-13T12:46:42;25.60;62.60
45283;DHT22;31023;44.994;1.796;2023-10-13T12:49:26;25.80;62.60
45283;DHT22;31023;44.994;1.796;2023-10-13T12:52:14;25.80;63.20
45283;DHT22;31023;44.994;1.796;2023-10-13T12:54:58;25.70;62.90
45283;DHT22;31023;44.994;1.796;2023-10-13T12:57:30;25.60;63.30
45283;DHT22;31023;44.994;1.796;2023-10-13T12:59:57;25.60;63.40
45283;DHT22;31023;44.994;1.796;2023-10-13T13:02:23;25.60;61.90
45283;DHT22;31023;44.994;1.796;2023-10-13T13:04:55;25.50;62.40
45283;DHT22;31023;44.994;1.796;2023-10-13T13:07:40;25.60;61.40
45283;DHT22;31023;44.994;1.796;2023-10-13T13:10:15;25.80;61.70
45283;DHT22;31023;44.994;1.796;2023-10-13T13:12:41;25.50;61.80
45283;DHT22;31023;44.994;1.796;2023-10-13T13:15:06;25.30;62.30
45283;DHT22;31023;44.994;1.796;2023-10-13T13:17:37;25.10;62.40
45283;DHT22;31023;44.994;1.796;2023-10-13T13:20:07;25.30;62.30
45283;DHT22;31023;44.994;1.796;2023-10-13T13:22:53;25.40;61.80
45283;DHT22;31023;44.994;1.796;2023-10-13T13:25:20;25.40;61.60
45283;DHT22;31023;44.994;1.796;2023-10-13T13:27:55;25.20;61.30
45283;DHT22;31023;44.994;1.796;2023-10-13T13:30:21;25.20;61.20
45283;DHT22;31023;44.994;1.796;2023-10-13T13:32:47;25.10;62.00
45283;DHT22;31023;44.994;1.796;2023-10-13T13:35:13;25.20;61.50
45283;DHT22;31023;44.994;1.796;2023-10-13T13:37:40;25.10;61.40
45283;DHT22;31023;44.994;1.796;2023-10-13T13:40:09;25.20;61.60
45283;DHT22;31023;44.994;1.796;2023-10-13T13:42:43;25.30;61.60
45283;DHT22;31023;44.994;1.796;2023-10-13T13:45:15;25.40;61.20
45283;DHT22;31023;44.994;1.796;2023-10-13T13:47:52;25.60;60.60
45283;DHT22;31023;44.994;1.796;2023-10-13T13:50:24;25.60;59.60
45283;DHT22;31023;44.994;1.796;2023-10-13T13:52:55;25.60;59.80
45283;DHT22;31023;44.994;1.796;2023-10-13T13:55:23;25.70;59.20
45283;DHT22;31023;44.994;1.796;2023-10-13T13:57:49;25.70;59.70
45283;DHT22;31023;44.994;1.796;2023-10-13T14:00:16;25.80;59.80
45283;DHT22;31023;44.994;1.796;2023-10-13T14:02:43;25.70;59.60
45283;DHT22;31023;44.994;1.796;2023-10-13T14:05:15;25.60;59.70
45283;DHT22;31023;44.994;1.796;2023-10-13T14:07:44;25.60;58.50
45283;DHT22;31023;44.994;1.796;2023-10-13T14:10:16;25.60;58.90
45283;DHT22;31023;44.994;1.796;2023-10-13T14:13:00;25.70;58.20
45283;DHT22;31023;44.994;1.796;2023-10-13T14:15:38;25.80;58.50
45283;DHT22;31023;44.994;1.796;2023-10-13T14:18:09;25.60;58.70
45283;DHT22;31023;44.994;1.796;2023-10-13T14:20:40;25.70;58.00
45283;DHT22;31023;44.994;1.796;2023-10-13T14:23:07;25.60;58.60
45283;DHT22;31023;44.994;1.796;2023-10-13T14:25:35;25.90;57.10
45283;DHT22;31023;44.994;1.796;2023-10-13T14:28:06;25.80;54.70
45283;DHT22;31023;44.994;1.796;2023-10-13T14:30:32;25.80;54.50
45283;DHT22;31023;44.994;1.796;2023-10-13T14:32:58;25.80;54.70
45283;DHT22;31023;44.994;1.796;2023-10-13T14:35:24;25.80;54.30
45283;DHT22;31023;44.994;1.796;2023-10-13T14:37:51;25.60;55.90
45283;DHT22;31023;44.994;1.796;2023-10-13T14:40:17;25.40;56.20
45283;DHT22;31023;44.994;1.796;2023-10-13T14:42:47;25.50;56.50
45283;DHT22;31023;44.994;1.796;2023-10-13T14:45:13;25.50;57.40
45283;DHT22;31023;44.994;1.796;2023-10-13T14:47:39;25.70;57.10
45283;DHT22;31023;44.994;1.796;2023-10-13T14:50:05;26.00;54.60
45283;DHT22;31023;44.994;1.796;2023-10-13T14:52:31;25.90;53.80
45283;DHT22;31023;44.994;1.796;2023-10-13T14:54:57;26.00;51.00
45283;DHT22;31023;44.994;1.796;2023-10-13T14:57:23;26.00;48.90
45283;DHT22;31023;44.994;1.796;2023-10-13T14:59:52;26.30;48.00
45283;DHT22;31023;44.994;1.796;2023-10-13T15:02:18;26.40;48.90
45283;DHT22;31023;44.994;1.796;2023-10-13T15:04:43;26.30;49.80
45283;DHT22;31023;44.994;1.796;2023-10-13T15:07:09;26.30;49.40
45283;DHT22;31023;44.994;1.796;2023-10-13T15:09:35;26.40;47.50
45283;DHT22;31023;44.994;1.796;2023-10-13T15:12:00;26.40;47.90
45283;DHT22;31023;44.994;1.796;2023-10-13T15:14:30;26.50;48.40
45283;DHT22;31023;44.994;1.796;2023-10-13T15:16:58;26.40;48.50
45283;DHT22;31023;44.994;1.796;2023-10-13T15:19:25;26.30;48.60
45283;DHT22;31023;44.994;1.796;2023-10-13T15:21:51;26.30;48.40
45283;DHT22;31023;44.994;1.796;2023-10-13T15:24:18;26.20;48.70
45283;DHT22;31023;44.994;1.796;2023-10-13T15:26:46;26.00;50.00
45283;DHT22;31023;44.994;1.796;2023-10-13T15:29:18;25.90;50.50
45283;DHT22;31023;44.994;1.796;2023-10-13T15:31:44;25.90;50.20
45283;DHT22;31023;44.994;1.796;2023-10-13T15:34:25;25.90;51.20
45283;DHT22;31023;44.994;1.796;2023-10-13T15:36:54;26.00;51.40
45283;DHT22;31023;44.994;1.796;2023-10-13T15:39:21;26.10;51.00
45283;DHT22;31023;44.994;1.796;2023-10-13T15:41:50;26.00;51.70
45283;DHT22;31023;44.994;1.796;2023-10-13T15:44:19;25.80;51.80
45283;DHT22;31023;44.994;1.796;2023-10-13T15:46:46;25.80;52.00
45283;DHT22;31023;44.994;1.796;2023-10-13T15:49:17;25.60;52.40
45283;DHT22;31023;44.994;1.796;2023-10-13T15:51:43;25.60;52.70
45283;DHT22;31023;44.994;1.796;2023-10-13T15:54:08;25.50;53.30
45283;DHT22;31023;44.994;1.796;2023-10-13T15:56:49;25.40;53.60
45283;DHT22;31023;44.994;1.796;2023-10-13T15:59:16;25.40;54.10
45283;DHT22;31023;44.994;1.796;2023-10-13T16:01:41;25.30;54.10
45283;DHT22;31023;44.994;1.796;2023-10-13T16:04:07;25.40;54.40
45283;DHT22;31023;44.994;1.796;2023-10-13T16:06:37;25.30;54.50
45283;DHT22;31023;44.994;1.796;2023-10-13T16:09:02;25.10;54.90
45283;DHT22;31023;44.994;1.796;2023-10-13T16:11:28;25.10;55.50
45283;DHT22;31023;44.994;1.796;2023-10-13T16:13:54;25.10;55.40
45283;DHT22;31023;44.994;1.796;2023-10-13T16:16:21;25.10;56.00
45283;DHT22;31023;44.994;1.796;2023-10-13T16:18:48;25.10;56.20